createdAt,value
2016-10-25T00:00:53.609Z,0
2016-10-25T00:01:53.664Z,0
2016-10-25T00:02:53.727Z,0
2016-10-25T00:03:53.792Z,0
2016-10-25T00:04:53.829Z,0
2016-10-25T00:05:53.866Z,0
2016-10-25T00:06:53.926Z,0
2016-10-25T00:07:53.976Z,0
2016-10-25T00:08:54.051Z,0
2016-10-25T00:09:54.103Z,0
2016-10-25T00:10:54.160Z,0
2016-10-25T00:11:54.220Z,0
2016-10-25T00:12:54.260Z,0
2016-10-25T00:13:54.321Z,0
2016-10-25T00:14:54.384Z,0
2016-10-25T00:15:54.437Z,0
2016-10-25T00:16:54.508Z,0
2016-10-25T00:17:54.559Z,0
2016-10-25T00:18:54.612Z,0
2016-10-25T00:19:54.654Z,0
2016-10-25T00:20:54.717Z,0
2016-10-25T00:21:54.781Z,0
2016-10-25T00:22:54.813Z,0
2016-10-25T00:23:54.901Z,0
2016-10-25T00:24:54.929Z,0
2016-10-25T00:25:54.986Z,0
2016-10-25T00:26:55.057Z,0
2016-10-25T00:27:55.106Z,0
2016-10-25T00:28:55.153Z,0
2016-10-25T00:29:55.202Z,0
2016-10-25T00:30:55.242Z,0
2016-10-25T00:31:55.316Z,0
2016-10-25T00:32:55.368Z,0
2016-10-25T00:33:55.436Z,0
2016-10-25T00:34:55.484Z,0
2016-10-25T00:35:55.542Z,0
2016-10-25T00:36:55.599Z,0
2016-10-25T00:37:55.642Z,0
2016-10-25T00:38:55.708Z,0
2016-10-25T00:39:55.756Z,0
2016-10-25T00:40:55.820Z,0
2016-10-25T00:41:55.863Z,0
2016-10-25T00:42:55.940Z,0
2016-10-25T00:43:55.994Z,0
2016-10-25T00:44:56.030Z,0
2016-10-25T00:45:56.090Z,0
2016-10-25T00:46:56.155Z,0
2016-10-25T00:47:56.219Z,0
2016-10-25T00:48:56.251Z,0
2016-10-25T00:49:56.316Z,0
2016-10-25T00:50:56.693Z,0
2016-10-25T00:51:56.430Z,0
2016-10-25T00:52:56.458Z,0
2016-10-25T00:53:56.513Z,0
2016-10-25T00:54:56.573Z,0
2016-10-25T00:55:56.650Z,0
2016-10-25T00:56:56.691Z,0
2016-10-25T00:57:56.755Z,0
2016-10-25T00:58:56.813Z,0
2016-10-25T00:59:57.158Z,0
2016-10-25T01:00:56.936Z,0
2016-10-25T01:01:56.978Z,0
2016-10-25T01:02:57.026Z,0
2016-10-25T01:03:57.085Z,0
2016-10-25T01:04:57.152Z,0
2016-10-25T01:05:57.182Z,0
2016-10-25T01:06:57.269Z,0
2016-10-25T01:07:57.313Z,0
2016-10-25T01:08:57.412Z,0
2016-10-25T01:09:57.415Z,0
2016-10-25T01:10:57.467Z,0
2016-10-25T01:11:57.535Z,0
2016-10-25T01:12:57.576Z,0
2016-10-25T01:13:57.646Z,0
2016-10-25T01:14:57.681Z,0
2016-10-25T01:15:57.727Z,0
2016-10-25T01:16:57.814Z,0
2016-10-25T01:17:57.842Z,0
2016-10-25T01:18:57.903Z,0
2016-10-25T01:19:57.971Z,0
2016-10-25T01:20:58.012Z,0
2016-10-25T01:21:58.087Z,0
2016-10-25T01:22:58.152Z,0
2016-10-25T01:23:58.189Z,0
2016-10-25T01:24:58.230Z,0
2016-10-25T01:25:58.295Z,0
2016-10-25T01:26:58.366Z,0
2016-10-25T01:27:58.420Z,0
2016-10-25T01:28:58.482Z,0
2016-10-25T01:29:58.517Z,0
2016-10-25T01:30:58.574Z,0
2016-10-25T01:31:58.641Z,0
2016-10-25T01:32:58.688Z,0
2016-10-25T01:33:58.750Z,0
2016-10-25T01:34:58.808Z,0
2016-10-25T01:35:58.851Z,0
2016-10-25T01:36:58.928Z,0
2016-10-25T01:37:58.960Z,0
2016-10-25T01:38:59.005Z,0
2016-10-25T01:39:59.077Z,0
2016-10-25T01:40:59.112Z,0
2016-10-25T01:41:59.184Z,0
2016-10-25T01:42:59.230Z,0
2016-10-25T01:43:59.300Z,0
2016-10-25T01:44:59.353Z,0
2016-10-25T01:45:59.408Z,0
2016-10-25T01:46:59.467Z,0
2016-10-25T01:47:59.518Z,0
2016-10-25T01:48:59.577Z,0
2016-10-25T01:49:59.766Z,0
2016-10-25T01:50:59.693Z,0
2016-10-25T01:51:59.745Z,0
2016-10-25T01:52:59.799Z,0
2016-10-25T01:53:59.846Z,0
2016-10-25T01:54:59.908Z,0
2016-10-25T01:55:59.966Z,0
2016-10-25T01:57:00.007Z,0
2016-10-25T01:58:00.068Z,0
2016-10-25T01:59:00.111Z,0
2016-10-25T02:00:00.180Z,0
2016-10-25T02:01:00.235Z,0
2016-10-25T02:02:00.305Z,0
2016-10-25T02:03:00.339Z,0
2016-10-25T02:04:00.398Z,0
2016-10-25T02:05:00.439Z,0
2016-10-25T02:06:00.497Z,0
2016-10-25T02:07:00.567Z,0
2016-10-25T02:08:00.626Z,0
2016-10-25T02:09:00.675Z,0
2016-10-25T02:10:00.737Z,0
2016-10-25T02:11:00.773Z,0
2016-10-25T02:12:00.852Z,0
2016-10-25T02:13:00.884Z,0
2016-10-25T02:14:00.967Z,0
2016-10-25T02:15:01.012Z,0
2016-10-25T02:16:01.078Z,0
2016-10-25T02:17:01.119Z,0
2016-10-25T02:18:01.171Z,0
2016-10-25T02:19:01.240Z,0
2016-10-25T02:20:01.304Z,0
2016-10-25T02:21:01.332Z,0
2016-10-25T02:22:01.388Z,0
2016-10-25T02:23:01.461Z,0
2016-10-25T02:24:01.498Z,0
2016-10-25T02:25:01.562Z,0
2016-10-25T02:26:01.603Z,0
2016-10-25T02:27:01.686Z,0
2016-10-25T02:28:01.731Z,0
2016-10-25T02:29:01.792Z,0
2016-10-25T02:30:01.846Z,0
2016-10-25T02:31:02.036Z,0
2016-10-25T02:32:01.955Z,0
2016-10-25T02:33:02.003Z,0
2016-10-25T02:34:02.097Z,0
2016-10-25T02:35:02.095Z,0
2016-10-25T02:36:02.253Z,0
2016-10-25T02:37:02.243Z,0
2016-10-25T02:38:02.287Z,0
2016-10-25T02:39:02.336Z,0
2016-10-25T02:40:02.374Z,0
2016-10-25T02:41:02.451Z,0
2016-10-25T02:42:02.519Z,0
2016-10-25T02:43:02.601Z,0
2016-10-25T02:44:02.625Z,0
2016-10-25T02:45:02.684Z,0
2016-10-25T02:46:02.726Z,0
2016-10-25T02:47:02.780Z,0
2016-10-25T02:48:02.829Z,0
2016-10-25T02:49:03.087Z,0
2016-10-25T02:50:02.956Z,0
2016-10-25T02:51:02.997Z,0
2016-10-25T02:52:03.063Z,0
2016-10-25T02:53:03.118Z,0
2016-10-25T02:54:03.155Z,0
2016-10-25T02:55:03.205Z,0
2016-10-25T02:56:03.258Z,0
2016-10-25T02:57:03.317Z,0
2016-10-25T02:58:03.388Z,0
2016-10-25T02:59:03.439Z,0
2016-10-25T03:00:03.493Z,0
2016-10-25T03:01:03.554Z,0
2016-10-25T03:02:03.606Z,0
2016-10-25T03:03:03.677Z,0
2016-10-25T03:04:03.715Z,0
2016-10-25T03:05:03.806Z,0
2016-10-25T03:06:03.807Z,0
2016-10-25T03:07:03.863Z,0
2016-10-25T03:08:03.934Z,0
2016-10-25T03:09:03.996Z,0
2016-10-25T03:10:04.047Z,0
2016-10-25T03:11:04.100Z,0
2016-10-25T03:12:04.170Z,0
2016-10-25T03:13:04.228Z,0
2016-10-25T03:14:04.261Z,0
2016-10-25T03:15:04.307Z,0
2016-10-25T03:16:04.377Z,0
2016-10-25T03:17:04.449Z,0
2016-10-25T03:18:04.482Z,0
2016-10-25T03:19:04.544Z,0
2016-10-25T03:20:04.581Z,0
2016-10-25T03:21:04.654Z,0
2016-10-25T03:22:04.710Z,0
2016-10-25T03:23:04.742Z,0
2016-10-25T03:24:04.833Z,0
2016-10-25T03:25:04.862Z,0
2016-10-25T03:26:04.942Z,0
2016-10-25T03:27:05.312Z,0
2016-10-25T03:28:05.042Z,0
2016-10-25T03:29:05.090Z,0
2016-10-25T03:30:05.149Z,0
2016-10-25T03:31:05.224Z,0
2016-10-25T03:32:05.253Z,0
2016-10-25T03:33:05.323Z,0
2016-10-25T03:34:05.369Z,0
2016-10-25T03:35:05.419Z,0
2016-10-25T03:36:05.527Z,0
2016-10-25T03:37:05.551Z,0
2016-10-25T03:38:05.592Z,0
2016-10-25T03:39:05.645Z,0
2016-10-25T03:40:05.687Z,0
2016-10-25T03:41:05.754Z,0
2016-10-25T03:42:05.791Z,0
2016-10-25T03:43:05.852Z,0
2016-10-25T03:44:05.908Z,0
2016-10-25T03:45:05.974Z,0
2016-10-25T03:46:06.029Z,0
2016-10-25T03:47:06.074Z,0
2016-10-25T03:48:06.146Z,0
2016-10-25T03:49:06.195Z,0
2016-10-25T03:50:06.243Z,0
2016-10-25T03:51:06.308Z,0
2016-10-25T03:52:06.378Z,0
2016-10-25T03:53:06.420Z,0
2016-10-25T03:54:06.477Z,0
2016-10-25T03:55:06.521Z,0
2016-10-25T03:56:06.591Z,0
2016-10-25T03:57:06.650Z,0
2016-10-25T03:58:06.690Z,0
2016-10-25T03:59:06.739Z,0
2016-10-25T04:00:06.808Z,0
2016-10-25T04:01:06.851Z,0
2016-10-25T04:02:06.892Z,0
2016-10-25T04:03:06.947Z,0
2016-10-25T04:04:07.027Z,0
2016-10-25T04:05:07.071Z,0
2016-10-25T04:06:07.120Z,0
2016-10-25T04:07:07.194Z,0
2016-10-25T04:08:07.250Z,0
2016-10-25T04:09:07.288Z,0
2016-10-25T04:10:07.344Z,0
2016-10-25T04:11:07.415Z,0
2016-10-25T04:12:07.459Z,0
2016-10-25T04:13:07.509Z,0
2016-10-25T04:14:07.581Z,0
2016-10-25T04:15:07.632Z,0
2016-10-25T04:16:07.695Z,0
2016-10-25T04:17:07.738Z,0
2016-10-25T04:18:07.798Z,0
2016-10-25T04:19:07.847Z,0
2016-10-25T04:20:07.909Z,0
2016-10-25T04:21:07.958Z,0
2016-10-25T04:22:08.000Z,0
2016-10-25T04:23:08.082Z,0
2016-10-25T04:24:08.106Z,0
2016-10-25T04:25:08.178Z,0
2016-10-25T04:26:08.289Z,0
2016-10-25T04:27:08.284Z,0
2016-10-25T04:28:08.322Z,0
2016-10-25T04:29:08.415Z,0
2016-10-25T04:30:08.450Z,0
2016-10-25T04:31:08.510Z,0
2016-10-25T04:32:08.563Z,0
2016-10-25T04:33:08.626Z,0
2016-10-25T04:34:08.671Z,0
2016-10-25T04:35:08.730Z,0
2016-10-25T04:36:08.765Z,0
2016-10-25T04:37:08.836Z,0
2016-10-25T04:38:08.890Z,0
2016-10-25T04:39:08.980Z,0
2016-10-25T04:40:09.001Z,0
2016-10-25T04:41:09.064Z,0
2016-10-25T04:42:09.425Z,0
2016-10-25T04:43:09.190Z,0
2016-10-25T04:44:09.214Z,0
2016-10-25T04:45:09.288Z,0
2016-10-25T04:46:09.332Z,0
2016-10-25T04:47:09.389Z,0
2016-10-25T04:48:09.457Z,0
2016-10-25T04:49:09.488Z,0
2016-10-25T04:50:09.538Z,0
2016-10-25T04:51:09.611Z,0
2016-10-25T04:52:09.663Z,0
2016-10-25T04:53:09.734Z,0
2016-10-25T04:54:09.783Z,0
2016-10-25T04:55:09.850Z,0
2016-10-25T04:56:09.899Z,0
2016-10-25T04:57:09.949Z,0
2016-10-25T04:58:10.004Z,0
2016-10-25T04:59:10.077Z,0
2016-10-25T05:00:10.110Z,0
2016-10-25T05:01:10.158Z,0
2016-10-25T05:02:10.205Z,0
2016-10-25T05:03:10.273Z,0
2016-10-25T05:04:10.348Z,0
2016-10-25T05:05:10.393Z,0
2016-10-25T05:06:10.450Z,0
2016-10-25T05:07:10.517Z,0
2016-10-25T05:08:10.555Z,0
2016-10-25T05:09:10.610Z,0
2016-10-25T05:10:10.693Z,0
2016-10-25T05:11:10.713Z,0
2016-10-25T05:12:10.779Z,0
2016-10-25T05:13:10.822Z,0
2016-10-25T05:14:10.867Z,0
2016-10-25T05:15:10.951Z,0
2016-10-25T05:16:11.014Z,0
2016-10-25T05:17:11.048Z,0
2016-10-25T05:18:11.105Z,0
2016-10-25T05:19:11.206Z,0
2016-10-25T05:20:11.205Z,0
2016-10-25T05:21:11.272Z,0
2016-10-25T05:22:11.328Z,0
2016-10-25T05:23:11.381Z,0
2016-10-25T05:24:11.428Z,0
2016-10-25T05:25:11.488Z,0
2016-10-25T05:26:11.554Z,0
2016-10-25T05:27:11.610Z,0
2016-10-25T05:28:11.641Z,0
2016-10-25T05:29:11.733Z,0
2016-10-25T05:30:11.773Z,0
2016-10-25T05:31:11.842Z,0
2016-10-25T05:32:11.871Z,0
2016-10-25T05:33:11.925Z,0
2016-10-25T05:34:11.995Z,0
2016-10-25T05:35:12.044Z,0
2016-10-25T05:36:12.131Z,4
2016-10-25T05:37:12.156Z,4
2016-10-25T05:38:12.222Z,4
2016-10-25T05:39:12.268Z,4
2016-10-25T05:40:12.336Z,4
2016-10-25T05:41:12.376Z,4
2016-10-25T05:42:12.439Z,4
2016-10-25T05:43:12.510Z,4
2016-10-25T05:44:12.534Z,4
2016-10-25T05:45:12.599Z,4
2016-10-25T05:46:12.680Z,4
2016-10-25T05:47:12.715Z,4
2016-10-25T05:48:12.865Z,4
2016-10-25T05:49:12.820Z,4
2016-10-25T05:50:12.892Z,4
2016-10-25T05:51:12.939Z,4
2016-10-25T05:52:12.999Z,4
2016-10-25T05:53:13.049Z,4
2016-10-25T05:54:13.121Z,4
2016-10-25T05:55:13.161Z,4
2016-10-25T05:56:13.217Z,4
2016-10-25T05:57:13.273Z,8
2016-10-25T05:58:13.343Z,8
2016-10-25T05:59:13.372Z,4
2016-10-25T06:00:13.448Z,8
2016-10-25T06:01:13.477Z,8
2016-10-25T06:02:13.571Z,12
2016-10-25T06:03:13.619Z,16
2016-10-25T06:04:13.654Z,16
2016-10-25T06:05:13.725Z,20
2016-10-25T06:06:13.758Z,20
2016-10-25T06:07:13.829Z,24
2016-10-25T06:08:13.898Z,24
2016-10-25T06:09:13.933Z,36
2016-10-25T06:10:13.988Z,52
2016-10-25T06:11:14.055Z,76
2016-10-25T06:12:14.112Z,92
2016-10-25T06:13:14.174Z,96
2016-10-25T06:14:14.205Z,100
2016-10-25T06:15:14.275Z,108
2016-10-25T06:16:14.320Z,120
2016-10-25T06:17:14.376Z,132
2016-10-25T06:18:14.446Z,124
2016-10-25T06:19:14.496Z,112
2016-10-25T06:20:14.559Z,92
2016-10-25T06:21:14.590Z,84
2016-10-25T06:22:14.647Z,84
2016-10-25T06:23:14.723Z,100
2016-10-25T06:24:14.747Z,124
2016-10-25T06:25:14.840Z,128
2016-10-25T06:26:15.174Z,128
2016-10-25T06:27:14.959Z,120
2016-10-25T06:28:14.990Z,120
2016-10-25T06:29:15.041Z,128
2016-10-25T06:30:15.099Z,140
2016-10-25T06:31:15.156Z,156
2016-10-25T06:32:15.217Z,164
2016-10-25T06:33:15.282Z,172
2016-10-25T06:34:15.320Z,196
2016-10-25T06:35:15.359Z,184
2016-10-25T06:36:15.438Z,184
2016-10-25T06:37:15.479Z,212
2016-10-25T06:38:15.591Z,196
2016-10-25T06:39:15.583Z,156
2016-10-25T06:40:15.659Z,132
2016-10-25T06:41:15.727Z,132
2016-10-25T06:42:15.772Z,108
2016-10-25T06:43:15.828Z,88
2016-10-25T06:44:15.871Z,84
2016-10-25T06:45:15.944Z,84
2016-10-25T06:46:15.989Z,84
2016-10-25T06:47:16.045Z,88
2016-10-25T06:48:16.099Z,96
2016-10-25T06:49:16.155Z,112
2016-10-25T06:50:16.206Z,116
2016-10-25T06:51:16.284Z,124
2016-10-25T06:52:16.323Z,136
2016-10-25T06:53:16.394Z,156
2016-10-25T06:54:16.412Z,180
2016-10-25T06:55:16.486Z,212
2016-10-25T06:56:16.545Z,248
2016-10-25T06:57:16.600Z,256
2016-10-25T06:58:16.654Z,264
2016-10-25T06:59:16.716Z,260
2016-10-25T07:00:16.762Z,232
2016-10-25T07:01:16.965Z,232
2016-10-25T07:02:16.854Z,224
2016-10-25T07:03:16.942Z,200
2016-10-25T07:04:16.988Z,184
2016-10-25T07:05:17.035Z,156
2016-10-25T07:06:17.087Z,164
2016-10-25T07:07:17.138Z,172
2016-10-25T07:08:17.217Z,180
2016-10-25T07:09:17.277Z,228
2016-10-25T07:10:17.323Z,240
2016-10-25T07:11:17.363Z,244
2016-10-25T07:12:17.425Z,264
2016-10-25T07:13:17.483Z,288
2016-10-25T07:14:17.551Z,292
2016-10-25T07:15:17.590Z,324
2016-10-25T07:16:17.833Z,344
2016-10-25T07:17:17.724Z,368
2016-10-25T07:18:17.777Z,420
2016-10-25T07:19:17.819Z,484
2016-10-25T07:20:17.868Z,504
2016-10-25T07:21:17.931Z,492
2016-10-25T07:22:17.995Z,476
2016-10-25T07:23:18.033Z,456
2016-10-25T07:24:18.078Z,456
2016-10-25T07:25:18.149Z,464
2016-10-25T07:26:18.210Z,448
2016-10-25T07:27:18.241Z,464
2016-10-25T07:28:18.304Z,480
2016-10-25T07:29:18.384Z,420
2016-10-25T07:30:18.441Z,380
2016-10-25T07:31:18.484Z,348
2016-10-25T07:32:18.542Z,332
2016-10-25T07:33:18.612Z,324
2016-10-25T07:34:18.648Z,328
2016-10-25T07:35:18.710Z,360
2016-10-25T07:36:18.764Z,384
2016-10-25T07:37:18.843Z,396
2016-10-25T07:38:18.904Z,404
2016-10-25T07:39:18.917Z,408
2016-10-25T07:40:18.973Z,388
2016-10-25T07:41:19.050Z,376
2016-10-25T07:42:19.104Z,356
2016-10-25T07:43:19.162Z,336
2016-10-25T07:44:19.220Z,372
2016-10-25T07:45:19.254Z,408
2016-10-25T07:46:19.315Z,412
2016-10-25T07:47:19.374Z,428
2016-10-25T07:48:19.436Z,448
2016-10-25T07:49:19.483Z,440
2016-10-25T07:50:19.533Z,436
2016-10-25T07:51:19.582Z,472
2016-10-25T07:52:19.644Z,432
2016-10-25T07:53:19.712Z,380
2016-10-25T07:54:19.757Z,396
2016-10-25T07:55:19.815Z,372
2016-10-25T07:56:19.881Z,360
2016-10-25T07:57:19.941Z,372
2016-10-25T07:58:19.979Z,356
2016-10-25T07:59:20.031Z,360
2016-10-25T08:00:20.094Z,432
2016-10-25T08:01:20.151Z,476
2016-10-25T08:02:20.201Z,440
2016-10-25T08:03:20.270Z,404
2016-10-25T08:04:20.333Z,464
2016-10-25T08:05:20.377Z,480
2016-10-25T08:06:20.414Z,452
2016-10-25T08:07:20.484Z,484
2016-10-25T08:08:20.533Z,480
2016-10-25T08:09:20.576Z,536
2016-10-25T08:10:20.635Z,688
2016-10-25T08:11:20.702Z,804
2016-10-25T08:12:20.765Z,860
2016-10-25T08:13:20.830Z,824
2016-10-25T08:14:20.858Z,880
2016-10-25T08:15:20.949Z,1024
2016-10-25T08:16:21.001Z,1080
2016-10-25T08:17:21.028Z,960
2016-10-25T08:18:21.096Z,872
2016-10-25T08:19:21.144Z,780
2016-10-25T08:20:21.221Z,920
2016-10-25T08:21:21.263Z,1152
2016-10-25T08:22:21.318Z,1276
2016-10-25T08:23:21.377Z,1492
2016-10-25T08:24:21.444Z,1544
2016-10-25T08:25:21.499Z,1512
2016-10-25T08:26:21.530Z,1448
2016-10-25T08:27:21.577Z,1256
2016-10-25T08:28:21.630Z,1036
2016-10-25T08:29:21.701Z,1460
2016-10-25T08:30:21.794Z,1360
2016-10-25T08:31:21.804Z,1104
2016-10-25T08:32:21.855Z,1256
2016-10-25T08:33:21.930Z,1352
2016-10-25T08:34:21.979Z,1268
2016-10-25T08:35:22.033Z,1368
2016-10-25T08:36:22.097Z,1176
2016-10-25T08:37:22.166Z,1352
2016-10-25T08:38:22.189Z,1624
2016-10-25T08:39:22.567Z,1564
2016-10-25T08:40:22.308Z,1248
2016-10-25T08:41:22.385Z,1248
2016-10-25T08:42:22.424Z,1492
2016-10-25T08:43:22.480Z,1460
2016-10-25T08:44:22.555Z,1464
2016-10-25T08:45:22.606Z,1348
2016-10-25T08:46:22.654Z,1576
2016-10-25T08:47:22.712Z,1944
2016-10-25T08:48:22.763Z,2164
2016-10-25T08:49:22.809Z,2296
2016-10-25T08:50:22.881Z,2624
2016-10-25T08:51:22.948Z,2312
2016-10-25T08:52:23.314Z,2332
2016-10-25T08:53:23.025Z,2088
2016-10-25T08:54:23.078Z,2252
2016-10-25T08:55:23.451Z,2516
2016-10-25T08:56:23.207Z,2232
2016-10-25T08:57:23.248Z,2864
2016-10-25T08:58:23.338Z,3172
2016-10-25T08:59:23.356Z,2168
2016-10-25T09:00:23.438Z,2176
2016-10-25T09:01:23.481Z,2388
2016-10-25T09:02:23.545Z,2408
2016-10-25T09:03:23.620Z,2576
2016-10-25T09:04:23.658Z,2368
2016-10-25T09:05:23.703Z,2092
2016-10-25T09:06:23.773Z,1956
2016-10-25T09:07:23.815Z,2268
2016-10-25T09:08:23.880Z,1792
2016-10-25T09:09:23.923Z,1740
2016-10-25T09:10:24.442Z,1720
2016-10-25T09:11:24.031Z,1668
2016-10-25T09:12:24.094Z,1668
2016-10-25T09:13:24.159Z,1720
2016-10-25T09:14:24.215Z,1600
2016-10-25T09:15:24.264Z,1476
2016-10-25T09:16:24.335Z,1480
2016-10-25T09:17:24.384Z,1400
2016-10-25T09:18:24.448Z,1328
2016-10-25T09:19:24.507Z,1168
2016-10-25T09:20:24.546Z,1104
2016-10-25T09:21:24.615Z,1104
2016-10-25T09:22:24.656Z,1000
2016-10-25T09:23:24.698Z,1032
2016-10-25T09:24:24.771Z,996
2016-10-25T09:25:24.810Z,1004
2016-10-25T09:26:24.873Z,1016
2016-10-25T09:27:24.936Z,1036
2016-10-25T09:28:24.975Z,972
2016-10-25T09:29:25.037Z,972
2016-10-25T09:30:25.098Z,892
2016-10-25T09:31:25.184Z,892
2016-10-25T09:32:25.209Z,844
2016-10-25T09:33:25.268Z,788
2016-10-25T09:34:25.309Z,808
2016-10-25T09:35:25.382Z,864
2016-10-25T09:36:25.434Z,848
2016-10-25T09:37:25.798Z,876
2016-10-25T09:38:25.565Z,1032
2016-10-25T09:39:25.595Z,1136
2016-10-25T09:40:25.673Z,948
2016-10-25T09:41:25.708Z,1008
2016-10-25T09:42:25.774Z,984
2016-10-25T09:43:26.053Z,928
2016-10-25T09:44:26.079Z,848
2016-10-25T09:45:26.136Z,848
2016-10-25T09:46:40.907Z,944
2016-10-25T09:47:26.031Z,1068
2016-10-25T09:48:26.112Z,984
2016-10-25T09:49:26.148Z,956
2016-10-25T09:50:26.230Z,844
2016-10-25T09:51:26.259Z,808
2016-10-25T09:52:26.313Z,728
2016-10-25T09:53:26.383Z,856
2016-10-25T09:54:26.435Z,820
2016-10-25T09:55:26.477Z,832
2016-10-25T09:56:26.557Z,760
2016-10-25T09:57:26.633Z,800
2016-10-25T09:58:26.663Z,752
2016-10-25T09:59:26.705Z,688
2016-10-25T10:00:26.769Z,704
2016-10-25T10:01:26.843Z,740
2016-10-25T10:02:26.889Z,684
2016-10-25T10:03:26.942Z,748
2016-10-25T10:04:27.017Z,724
2016-10-25T10:05:27.037Z,696
2016-10-25T10:06:27.093Z,708
2016-10-25T10:07:27.157Z,792
2016-10-25T10:08:27.235Z,796
2016-10-25T10:09:27.283Z,880
2016-10-25T10:10:27.312Z,788
2016-10-25T10:11:27.380Z,708
2016-10-25T10:12:27.438Z,696
2016-10-25T10:13:27.472Z,724
2016-10-25T10:14:27.560Z,752
2016-10-25T10:15:27.587Z,772
2016-10-25T10:16:27.871Z,716
2016-10-25T10:17:27.722Z,684
2016-10-25T10:18:27.768Z,664
2016-10-25T10:19:27.832Z,740
2016-10-25T10:20:27.885Z,720
2016-10-25T10:21:27.944Z,716
2016-10-25T10:22:27.990Z,752
2016-10-25T10:23:28.047Z,856
2016-10-25T10:24:28.111Z,856
2016-10-25T10:25:28.176Z,968
2016-10-25T10:26:28.201Z,912
2016-10-25T10:27:28.279Z,984
2016-10-25T10:28:28.345Z,1044
2016-10-25T10:29:28.387Z,1156
2016-10-25T10:30:28.437Z,1048
2016-10-25T10:31:28.479Z,976
2016-10-25T10:32:28.542Z,840
2016-10-25T10:33:28.614Z,896
2016-10-25T10:34:28.666Z,848
2016-10-25T10:35:28.739Z,800
2016-10-25T10:36:28.792Z,820
2016-10-25T10:37:28.831Z,888
2016-10-25T10:38:28.877Z,916
2016-10-25T10:39:28.940Z,920
2016-10-25T10:40:29.102Z,928
2016-10-25T10:41:29.032Z,928
2016-10-25T10:42:29.109Z,892
2016-10-25T10:43:29.148Z,836
2016-10-25T10:44:29.216Z,824
2016-10-25T10:45:29.286Z,856
2016-10-25T10:46:29.520Z,896
2016-10-25T10:47:29.616Z,916
2016-10-25T10:48:29.444Z,932
2016-10-25T10:49:29.483Z,1032
2016-10-25T10:50:29.541Z,968
2016-10-25T10:51:29.612Z,964
2016-10-25T10:52:29.661Z,1000
2016-10-25T10:53:44.653Z,1048
2016-10-25T10:54:29.763Z,1056
2016-10-25T10:55:29.835Z,1080
2016-10-25T10:56:29.876Z,1116
2016-10-25T10:57:29.967Z,1004
2016-10-25T10:58:29.996Z,1200
2016-10-25T10:59:30.058Z,1132
2016-10-25T11:00:30.125Z,1080
2016-10-25T11:01:30.171Z,1032
2016-10-25T11:02:30.208Z,1004
2016-10-25T11:03:30.280Z,980
2016-10-25T11:04:30.354Z,968
2016-10-25T11:05:30.377Z,936
2016-10-25T11:06:30.456Z,824
2016-10-25T11:07:30.511Z,780
2016-10-25T11:08:30.551Z,748
2016-10-25T11:09:30.613Z,716
2016-10-25T11:10:30.704Z,644
2016-10-25T11:11:30.723Z,584
2016-10-25T11:12:30.780Z,532
2016-10-25T11:13:30.850Z,516
2016-10-25T11:14:30.880Z,540
2016-10-25T11:15:30.960Z,548
2016-10-25T11:16:31.022Z,568
2016-10-25T11:17:31.057Z,560
2016-10-25T11:18:31.355Z,568
2016-10-25T11:19:31.191Z,580
2016-10-25T11:20:31.244Z,592
2016-10-25T11:21:31.299Z,560
2016-10-25T11:22:31.321Z,588
2016-10-25T11:23:31.403Z,668
2016-10-25T11:24:31.460Z,664
2016-10-25T11:25:31.509Z,596
2016-10-25T11:26:31.579Z,524
2016-10-25T11:27:31.615Z,484
2016-10-25T11:28:31.670Z,488
2016-10-25T11:29:31.719Z,476
2016-10-25T11:30:31.838Z,500
2016-10-25T11:31:31.837Z,548
2016-10-25T11:32:31.891Z,512
2016-10-25T11:33:31.948Z,496
2016-10-25T11:34:32.002Z,500
2016-10-25T11:35:32.067Z,532
2016-10-25T11:36:32.130Z,516
2016-10-25T11:37:32.174Z,512
2016-10-25T11:38:32.243Z,520
2016-10-25T11:39:32.284Z,500
2016-10-25T11:40:32.345Z,528
2016-10-25T11:41:32.391Z,528
2016-10-25T11:42:32.444Z,544
2016-10-25T11:43:32.513Z,528
2016-10-25T11:44:32.553Z,496
2016-10-25T11:45:32.625Z,488
2016-10-25T11:46:32.694Z,520
2016-10-25T11:47:32.732Z,512
2016-10-25T11:48:32.782Z,492
2016-10-25T11:49:32.863Z,500
2016-10-25T11:50:33.101Z,484
2016-10-25T11:51:32.958Z,452
2016-10-25T11:52:33.009Z,452
2016-10-25T11:53:33.082Z,436
2016-10-25T11:54:33.111Z,432
2016-10-25T11:55:33.200Z,420
2016-10-25T11:56:33.239Z,392
2016-10-25T11:57:33.291Z,396
2016-10-25T11:58:33.368Z,424
2016-10-25T11:59:33.417Z,436
2016-10-25T12:00:33.465Z,432
2016-10-25T12:01:33.507Z,440
2016-10-25T12:02:33.572Z,424
2016-10-25T12:03:33.633Z,440
2016-10-25T12:04:33.684Z,440
2016-10-25T12:05:33.743Z,420
2016-10-25T12:06:33.788Z,388
2016-10-25T12:07:33.864Z,352
2016-10-25T12:08:33.928Z,356
2016-10-25T12:09:33.968Z,348
2016-10-25T12:10:34.016Z,312
2016-10-25T12:11:34.085Z,280
2016-10-25T12:12:34.128Z,280
2016-10-25T12:13:34.176Z,280
2016-10-25T12:14:34.239Z,288
2016-10-25T12:15:34.314Z,264
2016-10-25T12:16:34.337Z,272
2016-10-25T12:17:34.408Z,232
2016-10-25T12:18:34.476Z,224
2016-10-25T12:19:34.740Z,240
2016-10-25T12:20:34.758Z,236
2016-10-25T12:21:34.839Z,252
2016-10-25T12:22:34.690Z,268
2016-10-25T12:23:34.742Z,292
2016-10-25T12:24:34.783Z,296
2016-10-25T12:25:34.860Z,332
2016-10-25T12:26:34.910Z,364
2016-10-25T12:27:34.964Z,356
2016-10-25T12:28:35.026Z,352
2016-10-25T12:29:35.097Z,348
2016-10-25T12:30:35.122Z,344
2016-10-25T12:31:35.522Z,328
2016-10-25T12:32:35.241Z,296
2016-10-25T12:33:35.310Z,272
2016-10-25T12:34:35.347Z,300
2016-10-25T12:35:35.435Z,320
2016-10-25T12:36:35.474Z,376
2016-10-25T12:37:35.517Z,376
2016-10-25T12:38:35.574Z,396
2016-10-25T12:39:35.634Z,376
2016-10-25T12:40:35.705Z,376
2016-10-25T12:41:35.749Z,364
2016-10-25T12:42:35.829Z,352
2016-10-25T12:43:35.882Z,296
2016-10-25T12:44:35.919Z,304
2016-10-25T12:45:35.968Z,300
2016-10-25T12:46:36.038Z,328
2016-10-25T12:47:36.076Z,380
2016-10-25T12:48:36.164Z,416
2016-10-25T12:49:36.199Z,436
2016-10-25T12:50:36.261Z,436
2016-10-25T12:51:36.316Z,420
2016-10-25T12:52:36.385Z,440
2016-10-25T12:53:36.420Z,456
2016-10-25T12:54:36.477Z,396
2016-10-25T12:55:36.538Z,388
2016-10-25T12:56:36.598Z,376
2016-10-25T12:57:36.650Z,360
2016-10-25T12:58:36.695Z,336
2016-10-25T12:59:36.753Z,348
2016-10-25T13:00:36.814Z,372
2016-10-25T13:01:36.875Z,420
2016-10-25T13:02:36.916Z,476
2016-10-25T13:03:36.980Z,536
2016-10-25T13:04:37.069Z,548
2016-10-25T13:05:37.105Z,528
2016-10-25T13:06:37.160Z,548
2016-10-25T13:07:37.241Z,528
2016-10-25T13:08:37.262Z,484
2016-10-25T13:09:37.333Z,464
2016-10-25T13:10:37.361Z,488
2016-10-25T13:11:37.413Z,512
2016-10-25T13:12:37.482Z,488
2016-10-25T13:13:37.686Z,448
2016-10-25T13:14:37.601Z,480
2016-10-25T13:15:37.646Z,448
2016-10-25T13:16:37.704Z,436
2016-10-25T13:17:37.743Z,504
2016-10-25T13:18:37.807Z,536
2016-10-25T13:19:37.874Z,568
2016-10-25T13:20:37.971Z,560
2016-10-25T13:21:37.977Z,524
2016-10-25T13:22:38.026Z,524
2016-10-25T13:23:38.104Z,548
2016-10-25T13:24:38.173Z,492
2016-10-25T13:25:38.219Z,436
2016-10-25T13:26:38.281Z,472
2016-10-25T13:27:38.321Z,456
2016-10-25T13:28:38.390Z,472
2016-10-25T13:29:38.441Z,428
2016-10-25T13:30:38.506Z,448
2016-10-25T13:31:38.560Z,496
2016-10-25T13:32:38.595Z,436
2016-10-25T13:33:38.674Z,412
2016-10-25T13:34:38.708Z,412
2016-10-25T13:35:38.780Z,428
2016-10-25T13:36:38.827Z,440
2016-10-25T13:37:38.877Z,484
2016-10-25T13:38:38.940Z,448
2016-10-25T13:39:39.020Z,416
2016-10-25T13:40:39.042Z,396
2016-10-25T13:41:39.091Z,392
2016-10-25T13:42:39.179Z,328
2016-10-25T13:43:39.198Z,312
2016-10-25T13:44:39.286Z,328
2016-10-25T13:45:39.329Z,304
2016-10-25T13:46:39.398Z,280
2016-10-25T13:47:39.450Z,248
2016-10-25T13:48:39.498Z,236
2016-10-25T13:49:39.568Z,248
2016-10-25T13:50:39.599Z,312
2016-10-25T13:51:39.656Z,344
2016-10-25T13:52:39.734Z,344
2016-10-25T13:53:39.794Z,308
2016-10-25T13:54:39.827Z,332
2016-10-25T13:55:39.892Z,332
2016-10-25T13:56:39.963Z,368
2016-10-25T13:57:40.012Z,360
2016-10-25T13:58:40.047Z,332
2016-10-25T13:59:40.125Z,324
2016-10-25T14:00:40.502Z,316
2016-10-25T14:01:40.227Z,324
2016-10-25T14:02:40.274Z,340
2016-10-25T14:03:40.336Z,316
2016-10-25T14:04:40.391Z,324
2016-10-25T14:05:40.454Z,316
2016-10-25T14:06:40.504Z,304
2016-10-25T14:07:40.538Z,268
2016-10-25T14:08:40.599Z,284
2016-10-25T14:09:40.876Z,252